sensor_id;sensor_type;location;lat;lon;timestamp;noise_LAeq;noise_LA_min;noise_LA_max;noise_LA01;noise_LA95
64545;Laerm;50936;51.660;5.616;2024-03-17T00:01:46;53.34;42.03;68.47;;
64545;Laerm;50936;51.660;5.616;2024-03-17T00:04:32;45.83;40.98;62.42;;
64545;Laerm;50936;51.660;5.616;2024-03-17T00:07:18;51.43;42.03;67.15;;
64545;Laerm;50936;51.660;5.616;2024-03-17T00:10:05;52.26;42.09;65.61;;
64545;Laerm;50936;51.660;5.616;2024-03-17T00:12:53;51.33;41.75;67.69;;
64545;Laerm;50936;51.660;5.616;2024-03-17T00:15:39;52.04;43.29;67.24;;
64545;Laerm;50936;51.660;5.616;2024-03-17T00:18:25;51.17;41.61;62.16;;
64545;Laerm;50936;51.660;5.616;2024-03-17T00:21:12;44.57;40.80;62.60;;
64545;Laerm;50936;51.660;5.616;2024-03-17T00:24:01;49.06;41.53;60.33;;
64545;Laerm;50936;51.660;5.616;2024-03-17T00:26:48;50.38;41.46;67.62;;
64545;Laerm;50936;51.660;5.616;2024-03-17T00:29:38;46.44;41.75;59.36;;
64545;Laerm;50936;51.660;5.616;2024-03-17T00:32:24;53.23;41.46;71.62;;
64545;Laerm;50936;51.660;5.616;2024-03-17T00:35:11;58.74;41.14;73.87;;
64545;Laerm;50936;51.660;5.616;2024-03-17T00:38:06;53.10;41.06;65.54;;
64545;Laerm;50936;51.660;5.616;2024-03-17T00:40:56;51.66;42.03;65.77;;
64545;Laerm;50936;51.660;5.616;2024-03-17T00:43:42;48.79;40.71;61.06;;
64545;Laerm;50936;51.660;5.616;2024-03-17T00:46:28;50.77;40.53;62.89;;
64545;Laerm;50936;51.660;5.616;2024-03-17T00:49:14;48.96;40.89;67.09;;
64545;Laerm;50936;51.660;5.616;2024-03-17T00:52:01;52.60;41.68;64.41;;
64545;Laerm;50936;51.660;5.616;2024-03-17T00:54:47;50.38;41.46;65.85;;
64545;Laerm;50936;51.660;5.616;2024-03-17T00:57:34;53.34;41.53;68.47;;
64545;Laerm;50936;51.660;5.616;2024-03-17T01:00:20;52.42;42.16;63.85;;
64545;Laerm;50936;51.660;5.616;2024-03-17T01:03:06;50.54;41.89;60.82;;
64545;Laerm;50936;51.660;5.616;2024-03-17T01:05:52;51.83;41.06;63.36;;
64545;Laerm;50936;51.660;5.616;2024-03-17T01:08:39;51.42;40.80;65.37;;
64545;Laerm;50936;51.660;5.616;2024-03-17T01:11:25;49.91;41.89;63.82;;
64545;Laerm;50936;51.660;5.616;2024-03-17T01:14:11;50.74;40.33;66.99;;
64545;Laerm;50936;51.660;5.616;2024-03-17T01:16:59;52.32;41.14;65.20;;
64545;Laerm;50936;51.660;5.616;2024-03-17T01:19:46;54.03;42.88;67.90;;
64545;Laerm;50936;51.660;5.616;2024-03-17T01:22:32;51.30;42.22;62.27;;
64545;Laerm;50936;51.660;5.616;2024-03-17T01:25:18;49.21;40.71;61.70;;
64545;Laerm;50936;51.660;5.616;2024-03-17T01:28:05;50.42;41.30;61.87;;
64545;Laerm;50936;51.660;5.616;2024-03-17T01:30:52;51.78;40.71;66.03;;
64545;Laerm;50936;51.660;5.616;2024-03-17T01:33:39;43.61;40.71;51.80;;
64545;Laerm;50936;51.660;5.616;2024-03-17T01:36:25;43.29;39.34;54.30;;
64545;Laerm;50936;51.660;5.616;2024-03-17T01:39:12;54.44;40.80;74.92;;
64545;Laerm;50936;51.660;5.616;2024-03-17T01:41:58;48.37;40.08;61.15;;
64545;Laerm;50936;51.660;5.616;2024-03-17T01:44:44;46.73;40.33;60.86;;
64545;Laerm;50936;51.660;5.616;2024-03-17T01:47:31;49.25;40.62;60.59;;
64545;Laerm;50936;51.660;5.616;2024-03-17T01:50:17;48.55;40.13;63.43;;
64545;Laerm;50936;51.660;5.616;2024-03-17T01:53:12;49.97;39.70;65.04;;
64545;Laerm;50936;51.660;5.616;2024-03-17T01:56:00;44.68;40.43;59.25;;
64545;Laerm;50936;51.660;5.616;2024-03-17T01:58:47;43.76;40.03;58.24;;
64545;Laerm;50936;51.660;5.616;2024-03-17T02:01:34;45.37;39.08;61.04;;
64545;Laerm;50936;51.660;5.616;2024-03-17T02:04:20;45.16;40.03;59.20;;
64545;Laerm;50936;51.660;5.616;2024-03-17T02:07:08;45.24;39.34;62.25;;
64545;Laerm;50936;51.660;5.616;2024-03-17T02:09:56;47.03;39.81;70.71;;
64545;Laerm;50936;51.660;5.616;2024-03-17T02:12:43;43.06;39.46;54.02;;
64545;Laerm;50936;51.660;5.616;2024-03-17T02:15:30;43.73;39.46;60.48;;
64545;Laerm;50936;51.660;5.616;2024-03-17T02:18:17;44.52;40.33;63.83;;
64545;Laerm;50936;51.660;5.616;2024-03-17T02:21:03;44.20;39.34;59.49;;
64545;Laerm;50936;51.660;5.616;2024-03-17T02:23:52;44.87;39.81;62.72;;
64545;Laerm;50936;51.660;5.616;2024-03-17T02:26:38;45.56;40.53;60.97;;
64545;Laerm;50936;51.660;5.616;2024-03-17T02:29:24;49.90;40.23;64.34;;
64545;Laerm;50936;51.660;5.616;2024-03-17T02:32:11;45.06;40.23;58.11;;
64545;Laerm;50936;51.660;5.616;2024-03-17T02:34:57;49.08;40.43;67.82;;
64545;Laerm;50936;51.660;5.616;2024-03-17T02:37:43;42.35;39.58;45.30;;
64545;Laerm;50936;51.660;5.616;2024-03-17T02:40:30;48.83;39.92;62.29;;
64545;Laerm;50936;51.660;5.616;2024-03-17T02:43:16;51.20;39.70;69.92;;
64545;Laerm;50936;51.660;5.616;2024-03-17T02:46:02;48.13;39.78;64.27;;
64545;Laerm;50936;51.660;5.616;2024-03-17T02:48:53;42.69;37.70;55.34;;
64545;Laerm;50936;51.660;5.616;2024-03-17T02:51:39;48.33;38.67;61.90;;
64545;Laerm;50936;51.660;5.616;2024-03-17T02:54:26;42.49;38.81;49.85;;
64545;Laerm;50936;51.660;5.616;2024-03-17T02:57:12;42.98;39.58;51.75;;
64545;Laerm;50936;51.660;5.616;2024-03-17T02:59:58;48.19;40.33;65.25;;
64545;Laerm;50936;51.660;5.616;2024-03-17T03:02:45;47.13;39.08;61.25;;
64545;Laerm;50936;51.660;5.616;2024-03-17T03:05:31;46.07;39.34;59.67;;
64545;Laerm;50936;51.660;5.616;2024-03-17T03:08:17;50.06;40.80;65.05;;
64545;Laerm;50936;51.660;5.616;2024-03-17T03:11:07;48.11;40.13;64.87;;
64545;Laerm;50936;51.660;5.616;2024-03-17T03:13:56;46.85;40.43;62.09;;
64545;Laerm;50936;51.660;5.616;2024-03-17T03:16:43;43.39;39.81;56.66;;
64545;Laerm;50936;51.660;5.616;2024-03-17T03:19:29;47.27;39.34;62.75;;
64545;Laerm;50936;51.660;5.616;2024-03-17T03:22:16;44.27;39.46;61.61;;
64545;Laerm;50936;51.660;5.616;2024-03-17T03:25:02;49.59;40.71;62.52;;
64545;Laerm;50936;51.660;5.616;2024-03-17T03:27:49;47.47;41.06;59.95;;
64545;Laerm;50936;51.660;5.616;2024-03-17T03:30:38;48.72;40.71;60.03;;
64545;Laerm;50936;51.660;5.616;2024-03-17T03:33:24;43.17;38.67;56.66;;
64545;Laerm;50936;51.660;5.616;2024-03-17T03:36:13;43.63;39.21;61.06;;
64545;Laerm;50936;51.660;5.616;2024-03-17T03:39:00;43.47;40.18;61.84;;
64545;Laerm;50936;51.660;5.616;2024-03-17T03:41:46;42.89;40.23;50.46;;
64545;Laerm;50936;51.660;5.616;2024-03-17T03:44:33;48.54;40.13;65.95;;
64545;Laerm;50936;51.660;5.616;2024-03-17T03:47:19;45.81;39.46;59.67;;
64545;Laerm;50936;51.660;5.616;2024-03-17T03:50:10;44.12;38.95;66.00;;
64545;Laerm;50936;51.660;5.616;2024-03-17T03:52:57;43.80;39.46;54.43;;
64545;Laerm;50936;51.660;5.616;2024-03-17T03:55:43;47.10;40.33;68.10;;
64545;Laerm;50936;51.660;5.616;2024-03-17T03:58:30;46.57;40.13;64.02;;
64545;Laerm;50936;51.660;5.616;2024-03-17T04:01:16;43.46;39.92;57.60;;
64545;Laerm;50936;51.660;5.616;2024-03-17T04:04:07;42.68;39.08;50.09;;
64545;Laerm;50936;51.660;5.616;2024-03-17T04:06:53;45.57;40.13;58.09;;
64545;Laerm;50936;51.660;5.616;2024-03-17T04:09:39;47.10;40.33;63.71;;
64545;Laerm;50936;51.660;5.616;2024-03-17T04:12:27;46.34;39.70;59.53;;
64545;Laerm;50936;51.660;5.616;2024-03-17T04:15:13;44.74;38.81;66.69;;
64545;Laerm;50936;51.660;5.616;2024-03-17T04:18:00;43.49;39.92;59.26;;
64545;Laerm;50936;51.660;5.616;2024-03-17T04:20:46;42.89;40.23;57.77;;
64545;Laerm;50936;51.660;5.616;2024-03-17T04:23:32;46.66;40.23;62.70;;
64545;Laerm;50936;51.660;5.616;2024-03-17T04:26:19;47.85;39.92;70.93;;
64545;Laerm;50936;51.660;5.616;2024-03-17T04:29:05;46.75;40.23;63.21;;
64545;Laerm;50936;51.660;5.616;2024-03-17T04:31:51;47.01;39.58;67.77;;
64545;Laerm;50936;51.660;5.616;2024-03-17T04:34:37;47.97;40.43;64.15;;
64545;Laerm;50936;51.660;5.616;2024-03-17T04:37:24;50.34;40.43;63.57;;
64545;Laerm;50936;51.660;5.616;2024-03-17T04:40:10;44.05;39.70;63.44;;
64545;Laerm;50936;51.660;5.616;2024-03-17T04:42:57;43.95;39.58;65.34;;
64545;Laerm;50936;51.660;5.616;2024-03-17T04:45:43;43.03;39.46;61.33;;
64545;Laerm;50936;51.660;5.616;2024-03-17T04:48:32;43.82;40.23;63.20;;
64545;Laerm;50936;51.660;5.616;2024-03-17T04:51:18;48.09;39.92;62.76;;
64545;Laerm;50936;51.660;5.616;2024-03-17T04:54:04;50.77;39.81;67.97;;
64545;Laerm;50936;51.660;5.616;2024-03-17T04:56:51;47.21;40.23;63.75;;
64545;Laerm;50936;51.660;5.616;2024-03-17T04:59:39;43.39;39.34;66.22;;
64545;Laerm;50936;51.660;5.616;2024-03-17T05:02:25;47.86;41.14;61.40;;
64545;Laerm;50936;51.660;5.616;2024-03-17T05:05:12;46.62;40.53;67.71;;
64545;Laerm;50936;51.660;5.616;2024-03-17T05:07:59;43.14;40.03;57.09;;
64545;Laerm;50936;51.660;5.616;2024-03-17T05:10:45;44.21;40.23;66.19;;
64545;Laerm;50936;51.660;5.616;2024-03-17T05:13:33;46.75;40.53;65.36;;
64545;Laerm;50936;51.660;5.616;2024-03-17T05:16:19;46.45;40.89;60.98;;
64545;Laerm;50936;51.660;5.616;2024-03-17T05:19:09;52.92;40.13;79.49;;
64545;Laerm;50936;51.660;5.616;2024-03-17T05:21:55;47.93;39.81;64.55;;
64545;Laerm;50936;51.660;5.616;2024-03-17T05:24:41;48.24;40.80;63.35;;
64545;Laerm;50936;51.660;5.616;2024-03-17T05:27:28;45.34;40.43;66.32;;
64545;Laerm;50936;51.660;5.616;2024-03-17T05:30:14;48.55;40.43;77.54;;
64545;Laerm;50936;51.660;5.616;2024-03-17T05:33:00;46.13;39.92;61.93;;
64545;Laerm;50936;51.660;5.616;2024-03-17T05:35:58;47.66;40.13;61.62;;
64545;Laerm;50936;51.660;5.616;2024-03-17T05:38:45;46.06;40.80;63.65;;
64545;Laerm;50936;51.660;5.616;2024-03-17T05:41:31;45.83;41.61;66.79;;
64545;Laerm;50936;51.660;5.616;2024-03-17T05:44:17;49.93;41.30;65.26;;
64545;Laerm;50936;51.660;5.616;2024-03-17T05:47:03;50.39;41.14;66.99;;
64545;Laerm;50936;51.660;5.616;2024-03-17T05:49:50;46.53;41.22;69.48;;
64545;Laerm;50936;51.660;5.616;2024-03-17T05:52:36;47.90;40.53;62.92;;
64545;Laerm;50936;51.660;5.616;2024-03-17T05:55:23;45.30;39.58;65.40;;
64545;Laerm;50936;51.660;5.616;2024-03-17T05:58:09;44.59;40.98;59.96;;
64545;Laerm;50936;51.660;5.616;2024-03-17T06:00:56;47.62;40.89;60.40;;
64545;Laerm;50936;51.660;5.616;2024-03-17T06:03:42;55.66;40.80;76.13;;
64545;Laerm;50936;51.660;5.616;2024-03-17T06:06:28;53.36;40.23;77.70;;
64545;Laerm;50936;51.660;5.616;2024-03-17T06:09:15;55.22;40.62;69.97;;
64545;Laerm;50936;51.660;5.616;2024-03-17T06:12:03;44.50;40.23;59.72;;
64545;Laerm;50936;51.660;5.616;2024-03-17T06:14:50;47.43;40.33;59.22;;
64545;Laerm;50936;51.660;5.616;2024-03-17T06:17:36;50.52;41.06;67.29;;
64545;Laerm;50936;51.660;5.616;2024-03-17T06:20:25;47.91;41.30;70.00;;
64545;Laerm;50936;51.660;5.616;2024-03-17T06:23:15;47.18;40.43;62.61;;
64545;Laerm;50936;51.660;5.616;2024-03-17T06:26:02;44.66;40.98;65.89;;
64545;Laerm;50936;51.660;5.616;2024-03-17T06:28:51;45.73;40.71;68.10;;
64545;Laerm;50936;51.660;5.616;2024-03-17T06:31:37;44.34;39.46;63.72;;
64545;Laerm;50936;51.660;5.616;2024-03-17T06:34:24;51.09;40.43;66.96;;
64545;Laerm;50936;51.660;5.616;2024-03-17T06:37:10;45.86;40.62;63.59;;
64545;Laerm;50936;51.660;5.616;2024-03-17T06:39:56;50.19;41.75;66.40;;
64545;Laerm;50936;51.660;5.616;2024-03-17T06:42:42;49.10;42.16;63.63;;
64545;Laerm;50936;51.660;5.616;2024-03-17T06:45:28;44.32;40.62;63.75;;
64545;Laerm;50936;51.660;5.616;2024-03-17T06:48:15;49.68;41.22;67.52;;
64545;Laerm;50936;51.660;5.616;2024-03-17T06:51:01;52.96;41.89;67.18;;
64545;Laerm;50936;51.660;5.616;2024-03-17T06:53:47;57.24;42.59;80.41;;
64545;Laerm;50936;51.660;5.616;2024-03-17T06:56:33;45.81;40.98;63.29;;
64545;Laerm;50936;51.660;5.616;2024-03-17T06:59:20;50.61;41.46;68.37;;
64545;Laerm;50936;51.660;5.616;2024-03-17T07:02:10;46.21;40.62;63.43;;
64545;Laerm;50936;51.660;5.616;2024-03-17T07:04:58;51.23;41.06;68.17;;
64545;Laerm;50936;51.660;5.616;2024-03-17T07:07:45;50.38;40.03;64.36;;
64545;Laerm;50936;51.660;5.616;2024-03-17T07:10:31;47.51;42.03;59.64;;
64545;Laerm;50936;51.660;5.616;2024-03-17T07:13:17;48.08;40.98;61.61;;
64545;Laerm;50936;51.660;5.616;2024-03-17T07:16:05;47.50;41.61;62.40;;
64545;Laerm;50936;51.660;5.616;2024-03-17T07:18:52;52.51;42.16;66.61;;
64545;Laerm;50936;51.660;5.616;2024-03-17T07:21:38;51.42;42.19;65.81;;
64545;Laerm;50936;51.660;5.616;2024-03-17T07:24:25;51.09;42.22;69.81;;
64545;Laerm;50936;51.660;5.616;2024-03-17T07:27:11;51.41;42.88;65.48;;
64545;Laerm;50936;51.660;5.616;2024-03-17T07:30:01;52.98;41.46;66.64;;
64545;Laerm;50936;51.660;5.616;2024-03-17T07:32:48;52.06;42.53;67.51;;
64545;Laerm;50936;51.660;5.616;2024-03-17T07:35:34;53.50;42.76;68.13;;
64545;Laerm;50936;51.660;5.616;2024-03-17T07:38:21;53.40;42.76;71.16;;
64545;Laerm;50936;51.660;5.616;2024-03-17T07:41:08;50.51;42.59;66.59;;
64545;Laerm;50936;51.660;5.616;2024-03-17T07:43:55;55.74;41.89;74.59;;
64545;Laerm;50936;51.660;5.616;2024-03-17T07:46:41;51.60;42.85;69.81;;
64545;Laerm;50936;51.660;5.616;2024-03-17T07:49:27;55.01;43.72;74.37;;
64545;Laerm;50936;51.660;5.616;2024-03-17T07:52:14;57.81;43.63;77.84;;
64545;Laerm;50936;51.660;5.616;2024-03-17T07:55:01;54.02;44.03;67.60;;
64545;Laerm;50936;51.660;5.616;2024-03-17T07:57:48;54.53;42.16;69.84;;
64545;Laerm;50936;51.660;5.616;2024-03-17T08:00:34;54.32;42.22;69.42;;
64545;Laerm;50936;51.660;5.616;2024-03-17T08:03:20;54.19;43.72;65.53;;
64545;Laerm;50936;51.660;5.616;2024-03-17T08:06:08;51.57;42.59;62.41;;
64545;Laerm;50936;51.660;5.616;2024-03-17T08:08:54;54.47;42.98;71.29;;
64545;Laerm;50936;51.660;5.616;2024-03-17T08:11:40;54.71;43.81;68.65;;
64545;Laerm;50936;51.660;5.616;2024-03-17T08:14:32;55.18;44.23;68.11;;
64545;Laerm;50936;51.660;5.616;2024-03-17T08:17:18;61.35;43.09;89.43;;
64545;Laerm;50936;51.660;5.616;2024-03-17T08:20:05;54.70;44.98;71.07;;
64545;Laerm;50936;51.660;5.616;2024-03-17T08:22:51;56.03;43.19;74.54;;
64545;Laerm;50936;51.660;5.616;2024-03-17T08:25:38;55.10;43.44;66.88;;
64545;Laerm;50936;51.660;5.616;2024-03-17T08:28:26;54.29;43.94;69.37;;
64545;Laerm;50936;51.660;5.616;2024-03-17T08:31:12;52.06;42.09;62.07;;
64545;Laerm;50936;51.660;5.616;2024-03-17T08:34:01;51.30;42.59;63.20;;
64545;Laerm;50936;51.660;5.616;2024-03-17T08:36:47;55.62;45.04;67.52;;
64545;Laerm;50936;51.660;5.616;2024-03-17T08:39:33;54.59;43.44;75.54;;
64545;Laerm;50936;51.660;5.616;2024-03-17T08:42:19;55.62;44.47;69.91;;
64545;Laerm;50936;51.660;5.616;2024-03-17T08:45:06;56.45;45.89;65.33;;
64545;Laerm;50936;51.660;5.616;2024-03-17T08:47:52;54.66;42.35;69.45;;
64545;Laerm;50936;51.660;5.616;2024-03-17T08:50:39;58.77;42.71;75.06;;
64545;Laerm;50936;51.660;5.616;2024-03-17T08:53:26;56.03;44.47;64.56;;
64545;Laerm;50936;51.660;5.616;2024-03-17T08:56:12;55.26;45.39;64.93;;
64545;Laerm;50936;51.660;5.616;2024-03-17T08:58:59;56.47;45.45;70.34;;
64545;Laerm;50936;51.660;5.616;2024-03-17T09:01:45;54.04;43.72;65.38;;
64545;Laerm;50936;51.660;5.616;2024-03-17T09:04:31;55.60;43.58;68.97;;
64545;Laerm;50936;51.660;5.616;2024-03-17T09:07:17;54.47;44.31;66.87;;
64545;Laerm;50936;51.660;5.616;2024-03-17T09:10:05;59.19;47.06;83.30;;
64545;Laerm;50936;51.660;5.616;2024-03-17T09:12:51;56.86;45.17;67.57;;
64545;Laerm;50936;51.660;5.616;2024-03-17T09:15:38;57.49;43.34;72.83;;
64545;Laerm;50936;51.660;5.616;2024-03-17T09:18:24;57.71;49.05;71.51;;
64545;Laerm;50936;51.660;5.616;2024-03-17T09:21:10;58.91;50.07;67.96;;
64545;Laerm;50936;51.660;5.616;2024-03-17T09:23:57;57.16;49.00;65.02;;
64545;Laerm;50936;51.660;5.616;2024-03-17T09:26:45;56.82;46.82;65.94;;
64545;Laerm;50936;51.660;5.616;2024-03-17T09:29:32;56.09;44.69;64.26;;
64545;Laerm;50936;51.660;5.616;2024-03-17T09:32:19;57.31;46.69;67.57;;
64545;Laerm;50936;51.660;5.616;2024-03-17T09:35:06;59.81;44.23;77.54;;
64545;Laerm;50936;51.660;5.616;2024-03-17T09:37:52;56.12;45.39;64.74;;
64545;Laerm;50936;51.660;5.616;2024-03-17T09:40:49;55.35;45.20;67.45;;
64545;Laerm;50936;51.660;5.616;2024-03-17T09:43:38;57.92;44.51;71.41;;
64545;Laerm;50936;51.660;5.616;2024-03-17T09:46:26;58.30;48.15;72.01;;
64545;Laerm;50936;51.660;5.616;2024-03-17T09:49:15;57.42;45.04;69.30;;
64545;Laerm;50936;51.660;5.616;2024-03-17T09:52:18;58.40;48.55;76.52;;
64545;Laerm;50936;51.660;5.616;2024-03-17T09:55:16;58.23;48.67;70.60;;
64545;Laerm;50936;51.660;5.616;2024-03-17T09:58:03;56.34;44.31;70.59;;
64545;Laerm;50936;51.660;5.616;2024-03-17T10:00:50;58.95;46.18;80.24;;
64545;Laerm;50936;51.660;5.616;2024-03-17T10:03:52;60.88;48.61;79.43;;
64545;Laerm;50936;51.660;5.616;2024-03-17T10:06:45;57.56;47.08;77.42;;
64545;Laerm;50936;51.660;5.616;2024-03-17T10:09:37;58.12;49.88;69.49;;
64545;Laerm;50936;51.660;5.616;2024-03-17T10:12:28;55.55;47.24;76.99;;
64545;Laerm;50936;51.660;5.616;2024-03-17T10:15:14;57.46;46.95;75.59;;
64545;Laerm;50936;51.660;5.616;2024-03-17T10:18:01;57.56;49.20;73.52;;
64545;Laerm;50936;51.660;5.616;2024-03-17T10:20:47;58.20;49.41;74.37;;
64545;Laerm;50936;51.660;5.616;2024-03-17T10:23:35;57.47;45.63;75.83;;
64545;Laerm;50936;51.660;5.616;2024-03-17T10:26:21;58.27;47.54;78.55;;
64545;Laerm;50936;51.660;5.616;2024-03-17T10:29:35;59.92;45.91;81.84;;
64545;Laerm;50936;51.660;5.616;2024-03-17T10:32:25;61.78;46.38;84.45;;
64545;Laerm;50936;51.660;5.616;2024-03-17T10:35:31;57.10;48.66;70.26;;
64545;Laerm;50936;51.660;5.616;2024-03-17T10:38:18;57.85;44.62;70.06;;
64545;Laerm;50936;51.660;5.616;2024-03-17T10:41:05;58.37;47.20;79.51;;
64545;Laerm;50936;51.660;5.616;2024-03-17T10:43:52;56.69;45.45;76.62;;
64545;Laerm;50936;51.660;5.616;2024-03-17T10:46:40;57.08;47.74;66.61;;
64545;Laerm;50936;51.660;5.616;2024-03-17T10:49:32;66.18;46.38;87.33;;
64545;Laerm;50936;51.660;5.616;2024-03-17T10:52:21;59.79;45.89;82.41;;
64545;Laerm;50936;51.660;5.616;2024-03-17T10:55:10;61.67;45.77;78.76;;
64545;Laerm;50936;51.660;5.616;2024-03-17T10:58:03;61.33;49.91;82.96;;
64545;Laerm;50936;51.660;5.616;2024-03-17T11:00:51;60.94;47.36;79.36;;
64545;Laerm;50936;51.660;5.616;2024-03-17T11:03:37;63.46;46.52;82.89;;
64545;Laerm;50936;51.660;5.616;2024-03-17T11:06:23;59.85;48.71;75.51;;
64545;Laerm;50936;51.660;5.616;2024-03-17T11:09:16;60.00;46.33;74.75;;
64545;Laerm;50936;51.660;5.616;2024-03-17T11:12:03;57.27;47.72;66.63;;
64545;Laerm;50936;51.660;5.616;2024-03-17T11:14:49;57.99;47.22;70.45;;
64545;Laerm;50936;51.660;5.616;2024-03-17T11:17:35;58.05;47.46;73.77;;
64545;Laerm;50936;51.660;5.616;2024-03-17T11:23:29;69.17;45.75;91.72;;
64545;Laerm;50936;51.660;5.616;2024-03-17T11:26:31;68.62;47.22;93.74;;
64545;Laerm;50936;51.660;5.616;2024-03-17T11:29:29;65.71;47.00;85.54;;
64545;Laerm;50936;51.660;5.616;2024-03-17T11:32:24;59.16;50.32;75.08;;
64545;Laerm;50936;51.660;5.616;2024-03-17T11:35:14;57.52;47.74;72.80;;
64545;Laerm;50936;51.660;5.616;2024-03-17T11:38:00;58.66;49.94;77.74;;
64545;Laerm;50936;51.660;5.616;2024-03-17T11:40:46;62.94;51.33;86.08;;
64545;Laerm;50936;51.660;5.616;2024-03-17T11:43:33;58.52;51.02;72.22;;
64545;Laerm;50936;51.660;5.616;2024-03-17T11:46:21;57.41;47.70;76.51;;
64545;Laerm;50936;51.660;5.616;2024-03-17T11:49:19;59.69;46.76;82.09;;
64545;Laerm;50936;51.660;5.616;2024-03-17T11:52:15;58.06;48.71;66.67;;
64545;Laerm;50936;51.660;5.616;2024-03-17T11:55:02;57.21;47.72;76.45;;
64545;Laerm;50936;51.660;5.616;2024-03-17T11:57:56;66.24;48.78;88.72;;
64545;Laerm;50936;51.660;5.616;2024-03-17T12:00:42;57.93;49.67;79.10;;
64545;Laerm;50936;51.660;5.616;2024-03-17T12:03:28;57.49;48.49;69.95;;
64545;Laerm;50936;51.660;5.616;2024-03-17T12:06:14;58.97;49.56;82.54;;
64545;Laerm;50936;51.660;5.616;2024-03-17T12:09:24;68.75;49.27;88.16;;
64545;Laerm;50936;51.660;5.616;2024-03-17T12:12:26;62.92;48.79;82.90;;
64545;Laerm;50936;51.660;5.616;2024-03-17T12:15:20;60.64;51.02;79.31;;
64545;Laerm;50936;51.660;5.616;2024-03-17T12:18:20;60.24;52.69;82.41;;
64545;Laerm;50936;51.660;5.616;2024-03-17T12:21:13;61.76;50.54;80.84;;
64545;Laerm;50936;51.660;5.616;2024-03-17T12:24:00;62.00;48.26;82.70;;
64545;Laerm;50936;51.660;5.616;2024-03-17T12:26:50;58.08;48.94;69.61;;
64545;Laerm;50936;51.660;5.616;2024-03-17T12:29:39;58.55;49.88;72.20;;
64545;Laerm;50936;51.660;5.616;2024-03-17T12:32:28;58.89;49.11;75.02;;
64545;Laerm;50936;51.660;5.616;2024-03-17T12:35:16;59.25;51.35;71.02;;
64545;Laerm;50936;51.660;5.616;2024-03-17T12:38:02;63.96;47.54;77.84;;
64545;Laerm;50936;51.660;5.616;2024-03-17T12:40:49;58.50;49.33;71.88;;
64545;Laerm;50936;51.660;5.616;2024-03-17T12:43:35;61.57;50.16;75.04;;
64545;Laerm;50936;51.660;5.616;2024-03-17T12:46:21;59.12;50.56;75.58;;
64545;Laerm;50936;51.660;5.616;2024-03-17T12:49:10;63.55;50.62;88.76;;
64545;Laerm;50936;51.660;5.616;2024-03-17T12:51:57;62.19;49.88;84.66;;
64545;Laerm;50936;51.660;5.616;2024-03-17T12:54:43;61.80;50.99;83.50;;
64545;Laerm;50936;51.660;5.616;2024-03-17T12:57:36;58.93;48.52;70.62;;
64545;Laerm;50936;51.660;5.616;2024-03-17T13:00:41;58.74;49.28;75.35;;
64545;Laerm;50936;51.660;5.616;2024-03-17T13:03:37;59.02;49.15;77.02;;
64545;Laerm;50936;51.660;5.616;2024-03-17T13:06:25;59.03;49.35;76.99;;
64545;Laerm;50936;51.660;5.616;2024-03-17T13:09:12;57.86;46.28;79.71;;
64545;Laerm;50936;51.660;5.616;2024-03-17T13:11:58;58.96;49.39;71.49;;
64545;Laerm;50936;51.660;5.616;2024-03-17T13:14:44;62.26;47.93;82.66;;
64545;Laerm;50936;51.660;5.616;2024-03-17T13:17:30;62.34;49.84;87.52;;
64545;Laerm;50936;51.660;5.616;2024-03-17T13:20:19;59.01;47.67;68.04;;
64545;Laerm;50936;51.660;5.616;2024-03-17T13:23:07;60.02;48.13;85.34;;
64545;Laerm;50936;51.660;5.616;2024-03-17T13:25:53;57.70;46.95;73.89;;
64545;Laerm;50936;51.660;5.616;2024-03-17T13:28:41;59.20;48.60;71.38;;
64545;Laerm;50936;51.660;5.616;2024-03-17T13:31:27;59.90;47.44;85.52;;
64545;Laerm;50936;51.660;5.616;2024-03-17T13:34:14;63.16;50.16;88.10;;
64545;Laerm;50936;51.660;5.616;2024-03-17T13:37:00;58.70;47.38;80.95;;
64545;Laerm;50936;51.660;5.616;2024-03-17T13:39:49;63.43;48.95;86.01;;
64545;Laerm;50936;51.660;5.616;2024-03-17T13:42:35;59.10;52.37;70.47;;
64545;Laerm;50936;51.660;5.616;2024-03-17T13:45:25;58.85;49.43;72.14;;
64545;Laerm;50936;51.660;5.616;2024-03-17T13:48:21;60.78;50.86;81.97;;
64545;Laerm;50936;51.660;5.616;2024-03-17T13:51:08;58.62;50.81;73.91;;
64545;Laerm;50936;51.660;5.616;2024-03-17T13:53:54;57.30;47.30;76.87;;
64545;Laerm;50936;51.660;5.616;2024-03-17T13:56:40;62.29;50.56;80.10;;
64545;Laerm;50936;51.660;5.616;2024-03-17T13:59:26;62.99;52.19;91.23;;
64545;Laerm;50936;51.660;5.616;2024-03-17T14:02:13;61.16;50.06;87.81;;
64545;Laerm;50936;51.660;5.616;2024-03-17T14:05:00;58.38;48.39;73.99;;
64545;Laerm;50936;51.660;5.616;2024-03-17T14:07:48;58.33;48.46;74.02;;
64545;Laerm;50936;51.660;5.616;2024-03-17T14:10:35;58.69;49.38;78.59;;
64545;Laerm;50936;51.660;5.616;2024-03-17T14:13:21;60.57;50.36;82.55;;
64545;Laerm;50936;51.660;5.616;2024-03-17T14:16:08;58.10;46.38;71.52;;
64545;Laerm;50936;51.660;5.616;2024-03-17T14:18:54;59.13;48.54;75.71;;
64545;Laerm;50936;51.660;5.616;2024-03-17T14:21:42;58.42;47.52;76.76;;
64545;Laerm;50936;51.660;5.616;2024-03-17T14:24:28;62.14;52.90;82.50;;
64545;Laerm;50936;51.660;5.616;2024-03-17T14:27:14;60.22;46.95;85.86;;
64545;Laerm;50936;51.660;5.616;2024-03-17T14:30:02;58.31;49.95;72.87;;
64545;Laerm;50936;51.660;5.616;2024-03-17T14:32:51;58.65;49.55;68.95;;
64545;Laerm;50936;51.660;5.616;2024-03-17T14:35:37;61.87;47.06;83.08;;
64545;Laerm;50936;51.660;5.616;2024-03-17T14:38:24;59.18;48.37;72.37;;
64545;Laerm;50936;51.660;5.616;2024-03-17T14:41:12;60.51;47.74;82.14;;
64545;Laerm;50936;51.660;5.616;2024-03-17T14:43:58;61.49;48.85;82.04;;
64545;Laerm;50936;51.660;5.616;2024-03-17T14:46:44;59.64;47.52;77.33;;
64545;Laerm;50936;51.660;5.616;2024-03-17T14:49:31;62.93;48.74;86.19;;
64545;Laerm;50936;51.660;5.616;2024-03-17T14:52:17;69.09;49.14;90.77;;
64545;Laerm;50936;51.660;5.616;2024-03-17T14:55:04;58.95;48.81;77.33;;
64545;Laerm;50936;51.660;5.616;2024-03-17T14:57:51;58.71;45.83;81.52;;
64545;Laerm;50936;51.660;5.616;2024-03-17T15:00:37;56.23;47.16;74.35;;
64545;Laerm;50936;51.660;5.616;2024-03-17T15:03:24;57.19;45.57;76.47;;
64545;Laerm;50936;51.660;5.616;2024-03-17T15:06:12;58.65;48.00;78.10;;
64545;Laerm;50936;51.660;5.616;2024-03-17T15:09:02;58.66;46.25;76.91;;
64545;Laerm;50936;51.660;5.616;2024-03-17T15:11:49;59.82;47.76;79.48;;
64545;Laerm;50936;51.660;5.616;2024-03-17T15:14:35;62.67;49.79;85.22;;
64545;Laerm;50936;51.660;5.616;2024-03-17T15:17:23;58.30;47.32;73.42;;
64545;Laerm;50936;51.660;5.616;2024-03-17T15:20:12;60.25;50.22;80.12;;
64545;Laerm;50936;51.660;5.616;2024-03-17T15:23:07;57.27;45.86;68.31;;
64545;Laerm;50936;51.660;5.616;2024-03-17T15:25:53;58.11;47.08;74.08;;
64545;Laerm;50936;51.660;5.616;2024-03-17T15:28:42;71.76;49.82;94.02;;
64545;Laerm;50936;51.660;5.616;2024-03-17T15:31:32;69.09;47.72;90.51;;
64545;Laerm;50936;51.660;5.616;2024-03-17T15:34:18;63.29;51.87;89.49;;
64545;Laerm;50936;51.660;5.616;2024-03-17T15:37:05;63.99;50.30;86.26;;
64545;Laerm;50936;51.660;5.616;2024-03-17T15:39:51;58.84;46.84;79.46;;
64545;Laerm;50936;51.660;5.616;2024-03-17T15:42:38;63.73;46.82;85.20;;